E.r. Basel — A8XQ4 — position and weather

sailwx.info

Track history (hours):
 
Tides and Currents Weather Stations Pressure Air Temp Water Temp Dewpoint Dewpoint Depression Visibility Wind Speed Wind Dir Waves Ship Positions

E.r. Basel

Last reported at 2014-Sep-17 17:29 UTC. Time now 2014-Sep-17 17:38 UTC.
Position N 40°17' E 122°05'.

Length 187 m; draft 12.8 m.

Type: Cargo ship. MMSI: 636092149.

Date/timePositionNaut miles runAvg speedWind from/ knotsBaromVisibWave heightAir tempDewpointWater temp
2014-Sep-17 17:29N 40°17' E 122°05'0 0.0
2014-Sep-17 16:23N 40°17' E 122°05'0 0.0
2014-Sep-17 15:29N 40°17' E 122°05'0 0.0
2014-Sep-17 14:23N 40°17' E 122°05'0 0.0
2014-Sep-17 13:29N 40°17' E 122°05'0 0.0
2014-Sep-17 12:29N 40°17' E 122°05'0 0.0
2014-Sep-17 11:29N 40°17' E 122°05'0 0.0
2014-Sep-17 10:29N 40°17' E 122°05'0 0.0
2014-Sep-17 09:29N 40°17' E 122°05'0 0.0
2014-Sep-17 08:29N 40°17' E 122°05'0 0.0
2014-Sep-17 07:29N 40°17' E 122°05'0 0.0
2014-Sep-17 06:29N 40°17' E 122°05'0 0.0
2014-Sep-17 05:29N 40°17' E 122°05'0 0.0
2014-Sep-17 04:29N 40°17' E 122°05'0 0.0
2014-Sep-17 03:29N 40°17' E 122°05'0 0.0
2014-Sep-17 02:33N 40°17' E 122°05'2 2.1
2014-Sep-17 01:33N 40°18' E 122°03'103 4.7
2014-Sep-16 03:32N 38°50' E 120°51'33 9.8
2014-Sep-16 00:06N 38°27' E 121°21'711.4
2014-Sep-15 23:27N 38°24' E 121°30'8710.9
2014-Sep-15 15:29N 37°49' E 123°11'  
2014-Sep-11 18:29N 23°56' E 118°28'10 9.8
2014-Sep-11 17:28N 23°51' E 118°18'1010.6
2014-Sep-11 16:33N 23°46' E 118°09'1111.0
2014-Sep-11 15:33N 23°43' E 117°58'1211.7
2014-Sep-11 14:33N 23°39' E 117°46'1512.4
2014-Sep-11 13:20N 23°28' E 117°35'1011.7
2014-Sep-11 12:29N 23°19' E 117°29'1010.7
2014-Sep-11 11:33N 23°11' E 117°23'1010.2
2014-Sep-11 10:32N 23°01' E 117°20'9 9.4
2014-Sep-11 09:32N 22°52' E 117°17'  
Track history (hours):
 
Tides and Currents Weather Stations Pressure Air Temp Water Temp Dewpoint Dewpoint Depression Visibility Wind Speed Wind Dir Waves Ship Positions

E.r. Basel

Last reported at 2014-Sep-17 17:29 UTC. Time now 2014-Sep-17 17:38 UTC.
Position N 40°17' E 122°05'.

Length 187 m; draft 12.8 m.

Type: Cargo ship. MMSI: 636092149.

Date/timePositionNaut miles runAvg speedWind from/ knotsBaromVisibWave heightAir tempDewpointWater temp
2014-Sep-17 17:29N 40°17' E 122°05'0 0.0
2014-Sep-17 16:23N 40°17' E 122°05'0 0.0
2014-Sep-17 15:29N 40°17' E 122°05'0 0.0
2014-Sep-17 14:23N 40°17' E 122°05'0 0.0
2014-Sep-17 13:29N 40°17' E 122°05'0 0.0
2014-Sep-17 12:29N 40°17' E 122°05'0 0.0
2014-Sep-17 11:29N 40°17' E 122°05'0 0.0
2014-Sep-17 10:29N 40°17' E 122°05'0 0.0
2014-Sep-17 09:29N 40°17' E 122°05'0 0.0
2014-Sep-17 08:29N 40°17' E 122°05'0 0.0
2014-Sep-17 07:29N 40°17' E 122°05'0 0.0
2014-Sep-17 06:29N 40°17' E 122°05'0 0.0
2014-Sep-17 05:29N 40°17' E 122°05'0 0.0
2014-Sep-17 04:29N 40°17' E 122°05'0 0.0
2014-Sep-17 03:29N 40°17' E 122°05'0 0.0
2014-Sep-17 02:33N 40°17' E 122°05'2 2.1
2014-Sep-17 01:33N 40°18' E 122°03'103 4.7
2014-Sep-16 03:32N 38°50' E 120°51'33 9.8
2014-Sep-16 00:06N 38°27' E 121°21'711.4
2014-Sep-15 23:27N 38°24' E 121°30'8710.9
2014-Sep-15 15:29N 37°49' E 123°11'  
2014-Sep-11 18:29N 23°56' E 118°28'10 9.8
2014-Sep-11 17:28N 23°51' E 118°18'1010.6
2014-Sep-11 16:33N 23°46' E 118°09'1111.0
2014-Sep-11 15:33N 23°43' E 117°58'1211.7
2014-Sep-11 14:33N 23°39' E 117°46'1512.4
2014-Sep-11 13:20N 23°28' E 117°35'1011.7
2014-Sep-11 12:29N 23°19' E 117°29'1010.7
2014-Sep-11 11:33N 23°11' E 117°23'1010.2
2014-Sep-11 10:32N 23°01' E 117°20'9 9.4
2014-Sep-11 09:32N 22°52' E 117°17'  

Dump ship's entire track history